Terminal Aerodrome Forecast
Issued by NWS

Home | Current Version | Previous Version | Text Only | Print | Product List | Glossary On
Versions: 1 2 3 4 5 6 7 8 9 10 11 12 13 14 15 16 17 18 19
211
FTUS43 KDLH 182117 AAA
TAFHYR
TAF AMD
KHYR 182117Z 1821/1918 16013G18KT P6SM FEW250
     FM190100 16010KT P6SM SCT250
     FM191200 VRB04KT P6SM BKN030
     FM191300 30005KT P6SM BKN015=

USA.gov is the U.S. government's official web portal to all federal, state and local government web resources and services.